createdAt,value
2017-01-19T00:00:05.685Z,1020.9
2017-01-19T00:00:46.113Z,1020.92
2017-01-19T00:01:26.661Z,1020.97
2017-01-19T00:02:07.580Z,1020.95
2017-01-19T00:02:47.870Z,1020.99
2017-01-19T00:03:28.518Z,1020.91
2017-01-19T00:04:08.989Z,1020.9
2017-01-19T00:04:49.476Z,1020.99
2017-01-19T00:05:30.049Z,1020.98
2017-01-19T00:06:10.807Z,1020.97
2017-01-19T00:06:51.381Z,1020.98
2017-01-19T00:07:31.958Z,1021
2017-01-19T00:08:12.488Z,1020.94
2017-01-19T00:08:53.052Z,1021.02
2017-01-19T00:09:33.940Z,1020.98
2017-01-19T00:10:14.693Z,1021.02
2017-01-19T00:10:55.298Z,1021.02
2017-01-19T00:11:35.782Z,1021.05
2017-01-19T00:12:16.344Z,1021.07
2017-01-19T00:12:56.840Z,1021.05
2017-01-19T00:13:37.286Z,1021.03
2017-01-19T00:14:17.792Z,1021.03
2017-01-19T00:14:58.319Z,1021.05
2017-01-19T00:15:38.828Z,1021.01
2017-01-19T00:16:19.429Z,1021.01
2017-01-19T00:16:59.882Z,1021.04
2017-01-19T00:17:40.597Z,1021.04
2017-01-19T00:18:21.661Z,1021.09
2017-01-19T00:19:01.447Z,1021.08
2017-01-19T00:19:42.090Z,1021.07
2017-01-19T00:20:22.633Z,1021.15
2017-01-19T00:21:03.943Z,1021.09
2017-01-19T00:21:44.517Z,1021.16
2017-01-19T00:22:25.405Z,1021.13
2017-01-19T00:23:05.970Z,1021.19
2017-01-19T00:23:46.666Z,1021.21
2017-01-19T00:24:27.049Z,1021.22
2017-01-19T00:25:07.544Z,1021.22
2017-01-19T00:25:48.178Z,1021.16
2017-01-19T00:26:28.720Z,1021.18
2017-01-19T00:27:09.199Z,1021.16
2017-01-19T00:27:49.876Z,1021.18
2017-01-19T00:28:30.517Z,1021.18
2017-01-19T00:29:11.015Z,1021.21
2017-01-19T00:29:51.563Z,1021.12
2017-01-19T00:30:32.010Z,1021.12
2017-01-19T00:31:12.465Z,1021.14
2017-01-19T00:31:52.935Z,1021.2
2017-01-19T00:32:33.465Z,1021.18
2017-01-19T00:33:14.002Z,1021.15
2017-01-19T00:33:54.445Z,1021.16
2017-01-19T00:34:34.893Z,1021.2
2017-01-19T00:35:15.377Z,1021.13
2017-01-19T00:35:55.902Z,1021.15
2017-01-19T00:36:36.396Z,1021.16
2017-01-19T00:37:16.815Z,1021.13
2017-01-19T00:37:57.349Z,1021.12
2017-01-19T00:38:37.880Z,1021.09
2017-01-19T00:39:18.412Z,1021.15
2017-01-19T00:39:58.860Z,1021.06
2017-01-19T00:40:39.367Z,1021.14
2017-01-19T00:41:19.914Z,1021.19
2017-01-19T00:42:00.364Z,1021.19
2017-01-19T00:42:41.023Z,1021.17
2017-01-19T00:43:21.554Z,1021.17
2017-01-19T00:44:02.008Z,1021.25
2017-01-19T00:44:42.565Z,1021.17
2017-01-19T00:45:23.002Z,1021.14
2017-01-19T00:46:03.550Z,1021.2
2017-01-19T00:46:44.057Z,1021.19
2017-01-19T00:47:24.539Z,1021.14
2017-01-19T00:48:05.006Z,1021.18
2017-01-19T00:48:45.502Z,1021.14
2017-01-19T00:49:26.388Z,1021.2
2017-01-19T00:50:06.935Z,1021.09
2017-01-19T00:50:47.364Z,1021.15
2017-01-19T00:51:27.923Z,1021.16
2017-01-19T00:52:08.447Z,1021.12
2017-01-19T00:52:48.875Z,1021.2
2017-01-19T00:53:29.347Z,1021.16
2017-01-19T00:54:09.958Z,1021.13
2017-01-19T00:54:50.381Z,1021.19
2017-01-19T00:55:30.869Z,1021.14
2017-01-19T00:56:11.335Z,1021.12
2017-01-19T00:56:51.787Z,1021.2
2017-01-19T00:57:32.422Z,1021.13
2017-01-19T00:58:12.797Z,1021.15
2017-01-19T00:58:53.308Z,1021.13
2017-01-19T00:59:33.806Z,1021.13
2017-01-19T01:00:14.317Z,1021.09
2017-01-19T01:00:54.742Z,1021.12
2017-01-19T01:01:35.222Z,1021.12
2017-01-19T01:02:15.752Z,1021.11
2017-01-19T01:02:56.210Z,1021.08
2017-01-19T01:03:36.680Z,1021.12
2017-01-19T01:04:17.325Z,1021.17
2017-01-19T01:04:57.829Z,1021.07
2017-01-19T01:05:38.400Z,1021.07
2017-01-19T01:06:18.898Z,1021.14
2017-01-19T01:06:59.368Z,1021.14
2017-01-19T01:07:39.814Z,1021.14
2017-01-19T01:08:20.358Z,1021.1
2017-01-19T01:09:00.866Z,1021.06
2017-01-19T01:09:41.376Z,1021.1
2017-01-19T01:10:21.839Z,1021.07
2017-01-19T01:11:02.333Z,1021.1
2017-01-19T01:11:42.805Z,1021.17
2017-01-19T01:12:23.283Z,1021.06
2017-01-19T01:13:03.735Z,1021.05
2017-01-19T01:13:44.249Z,1021.1
2017-01-19T01:14:24.785Z,1021.09
2017-01-19T01:15:05.272Z,1021.05
2017-01-19T01:15:45.792Z,1021.05
2017-01-19T01:16:26.239Z,1021.04
2017-01-19T01:18:39.475Z,1021.05
2017-01-19T01:19:19.937Z,1021
2017-01-19T01:20:00.440Z,1020.99
2017-01-19T01:20:40.924Z,1021.11
2017-01-19T01:21:21.419Z,1020.91
2017-01-19T01:22:01.866Z,1020.99
2017-01-19T01:22:42.390Z,1020.94
2017-01-19T01:23:22.836Z,1020.96
2017-01-19T01:24:03.344Z,1020.94
2017-01-19T01:24:43.893Z,1020.94
2017-01-19T01:25:24.359Z,1020.89
2017-01-19T01:26:04.809Z,1020.88
2017-01-19T01:26:45.303Z,1020.9
2017-01-19T01:27:25.877Z,1020.91
2017-01-19T01:28:06.611Z,1021.02
2017-01-19T01:28:47.045Z,1020.95
2017-01-19T01:29:27.659Z,1021.04
2017-01-19T01:30:08.249Z,1020.9
2017-01-19T01:30:48.563Z,1020.98
2017-01-19T01:31:29.027Z,1020.93
2017-01-19T01:32:09.505Z,1020.89
2017-01-19T01:32:49.982Z,1020.9
2017-01-19T01:33:30.493Z,1021.05
2017-01-19T01:34:10.937Z,1020.99
2017-01-19T01:34:51.491Z,1021.02
2017-01-19T01:35:31.965Z,1021.09
2017-01-19T01:36:12.632Z,1021.02
2017-01-19T01:36:53.179Z,1020.98
2017-01-19T01:37:33.515Z,1020.96
2017-01-19T01:38:14.215Z,1021.04
2017-01-19T01:38:54.567Z,1021.08
2017-01-19T01:39:35.018Z,1021.02
2017-01-19T01:40:15.486Z,1021.03
2017-01-19T01:40:56.003Z,1020.98
2017-01-19T01:41:36.441Z,1021.02
2017-01-19T01:42:16.928Z,1020.95
2017-01-19T01:42:57.478Z,1021.02
2017-01-19T01:43:37.885Z,1020.95
2017-01-19T01:44:18.355Z,1020.97
2017-01-19T01:44:58.900Z,1021.09
2017-01-19T01:45:39.321Z,1020.97
2017-01-19T01:46:19.841Z,1020.97
2017-01-19T01:47:00.370Z,1021
2017-01-19T01:47:40.872Z,1021.04
2017-01-19T01:48:21.342Z,1021
2017-01-19T01:49:01.897Z,1020.97
2017-01-19T01:49:42.437Z,1020.99
2017-01-19T01:50:22.880Z,1020.99
2017-01-19T01:51:03.471Z,1020.95
2017-01-19T01:51:43.881Z,1020.93
2017-01-19T01:52:24.352Z,1020.96
2017-01-19T01:53:04.882Z,1020.95
2017-01-19T01:53:45.369Z,1020.91
2017-01-19T01:54:25.889Z,1020.93
2017-01-19T01:55:06.387Z,1020.96
2017-01-19T01:55:46.840Z,1020.92
2017-01-19T01:56:27.440Z,1020.96
2017-01-19T01:57:07.804Z,1020.9
2017-01-19T01:57:48.439Z,1020.89
2017-01-19T01:58:28.875Z,1020.96
2017-01-19T01:59:09.343Z,1020.98
2017-01-19T01:59:49.702Z,1020.94
2017-01-19T02:00:30.345Z,1021.09
2017-01-19T02:01:10.832Z,1020.98
2017-01-19T02:01:51.291Z,1021.03
2017-01-19T02:02:31.794Z,1021.02
2017-01-19T02:03:12.517Z,1021.04
2017-01-19T02:03:53.097Z,1020.95
2017-01-19T02:04:33.546Z,1020.95
2017-01-19T02:05:14.089Z,1021.02
2017-01-19T02:05:54.677Z,1020.93
2017-01-19T02:06:35.055Z,1020.98
2017-01-19T02:07:15.556Z,1021.1
2017-01-19T02:07:56.118Z,1020.94
2017-01-19T02:08:36.651Z,1020.96
2017-01-19T02:09:17.206Z,1020.99
2017-01-19T02:09:57.864Z,1020.96
2017-01-19T02:10:38.376Z,1021.01
2017-01-19T02:11:18.910Z,1021.03
2017-01-19T02:11:59.356Z,1021.07
2017-01-19T02:12:39.847Z,1021.09
2017-01-19T02:13:20.331Z,1021.01
2017-01-19T02:14:00.822Z,1021.08
2017-01-19T02:14:41.299Z,1021.02
2017-01-19T02:15:21.788Z,1021.09
2017-01-19T02:16:02.387Z,1020.98
2017-01-19T02:16:42.909Z,1021.01
2017-01-19T02:17:23.375Z,1020.99
2017-01-19T02:18:03.879Z,1021
2017-01-19T02:18:44.389Z,1021.1
2017-01-19T02:19:24.877Z,1021.01
2017-01-19T02:20:05.344Z,1020.97
2017-01-19T02:20:45.850Z,1021
2017-01-19T02:21:26.291Z,1020.99
2017-01-19T02:22:06.893Z,1020.99
2017-01-19T02:22:47.413Z,1020.99
2017-01-19T02:23:27.869Z,1021.01
2017-01-19T02:24:08.341Z,1020.95
2017-01-19T02:24:48.875Z,1020.99
2017-01-19T02:25:29.349Z,1020.93
2017-01-19T02:26:09.807Z,1020.94
2017-01-19T02:26:50.296Z,1020.96
2017-01-19T02:27:30.776Z,1020.97
2017-01-19T02:28:11.149Z,1021.02
2017-01-19T02:28:51.791Z,1020.96
2017-01-19T02:29:32.217Z,1020.95
2017-01-19T02:30:12.771Z,1020.93
2017-01-19T02:30:53.282Z,1021
2017-01-19T02:31:33.772Z,1020.96
2017-01-19T02:32:14.456Z,1021.02
2017-01-19T02:32:54.916Z,1020.98
2017-01-19T02:33:35.596Z,1020.96
2017-01-19T02:34:16.213Z,1020.93
2017-01-19T02:34:56.696Z,1020.96
2017-01-19T02:35:37.238Z,1020.91
2017-01-19T02:36:18.018Z,1020.96
2017-01-19T02:36:58.408Z,1020.98
2017-01-19T02:37:38.896Z,1020.99
2017-01-19T02:38:19.478Z,1021.02
2017-01-19T02:38:59.975Z,1020.99
2017-01-19T02:39:40.420Z,1021
2017-01-19T02:40:20.867Z,1021.08
2017-01-19T02:41:01.350Z,1020.99
2017-01-19T02:41:41.832Z,1021.01
2017-01-19T02:42:22.373Z,1021.04
2017-01-19T02:43:02.911Z,1021.03
2017-01-19T02:43:43.285Z,1021.05
2017-01-19T02:44:23.877Z,1021.07
2017-01-19T02:45:04.377Z,1021.07
2017-01-19T02:45:44.843Z,1021.05
2017-01-19T02:46:25.317Z,1021.06
2017-01-19T02:47:05.779Z,1021.1
2017-01-19T02:47:46.277Z,1021.19
2017-01-19T02:48:26.808Z,1021.14
2017-01-19T02:49:07.290Z,1021.15
2017-01-19T02:49:47.859Z,1021.12
2017-01-19T02:50:28.273Z,1021.11
2017-01-19T02:51:08.822Z,1021.04
2017-01-19T02:51:49.393Z,1021.08
2017-01-19T02:52:29.779Z,1021.09
2017-01-19T02:53:10.305Z,1021.09
2017-01-19T02:53:50.902Z,1021.14
2017-01-19T02:54:31.245Z,1021.06
2017-01-19T02:55:11.748Z,1021.13
2017-01-19T02:55:52.220Z,1021.08
2017-01-19T02:56:32.784Z,1021.14
2017-01-19T02:57:13.230Z,1021.18
2017-01-19T02:57:53.703Z,1021.18
2017-01-19T02:58:34.126Z,1021.2
2017-01-19T02:59:14.595Z,1021.16
2017-01-19T02:59:55.118Z,1021.13
2017-01-19T03:00:35.603Z,1021.2
2017-01-19T03:01:16.098Z,1021.2
2017-01-19T03:01:56.528Z,1021.14
2017-01-19T03:02:37.090Z,1021.14
2017-01-19T03:03:17.548Z,1021.14
2017-01-19T03:03:58.037Z,1021.18
2017-01-19T03:04:38.525Z,1021.15
2017-01-19T03:05:19.057Z,1021.18
2017-01-19T03:05:59.505Z,1021.11
2017-01-19T03:06:39.982Z,1021.12
2017-01-19T03:07:20.520Z,1021.18
2017-01-19T03:08:00.990Z,1021.21
2017-01-19T03:08:41.481Z,1021.13
2017-01-19T03:09:22.037Z,1021.18
2017-01-19T03:10:02.498Z,1021.12
2017-01-19T03:10:43.028Z,1021.26
2017-01-19T03:11:23.540Z,1021.17
2017-01-19T03:12:04.007Z,1021.2
2017-01-19T03:12:44.503Z,1021.19
2017-01-19T03:13:24.996Z,1021.21
2017-01-19T03:14:05.490Z,1021.24
2017-01-19T03:14:46.004Z,1021.26
2017-01-19T03:15:26.457Z,1021.2
2017-01-19T03:16:06.963Z,1021.21
2017-01-19T03:16:47.404Z,1021.23
2017-01-19T03:17:27.934Z,1021.24
2017-01-19T03:18:08.400Z,1021.19
2017-01-19T03:18:48.906Z,1021.21
2017-01-19T03:19:29.407Z,1021.2
2017-01-19T03:20:09.893Z,1021.18
2017-01-19T03:20:50.344Z,1021.17
2017-01-19T03:21:30.837Z,1021.18
2017-01-19T03:22:11.356Z,1021.23
2017-01-19T03:22:51.819Z,1021.18
2017-01-19T03:23:32.307Z,1021.23
2017-01-19T03:24:12.882Z,1021.21
2017-01-19T03:24:53.289Z,1021.24
2017-01-19T03:25:33.743Z,1021.19
2017-01-19T03:26:14.232Z,1021.23
2017-01-19T03:26:54.765Z,1021.27
2017-01-19T03:27:35.253Z,1021.27
2017-01-19T03:28:15.691Z,1021.3
2017-01-19T03:28:56.200Z,1021.25
2017-01-19T03:29:36.654Z,1021.29
2017-01-19T03:30:17.144Z,1021.29
2017-01-19T03:30:57.631Z,1021.27
2017-01-19T03:31:38.140Z,1021.33
2017-01-19T03:32:18.679Z,1021.28
2017-01-19T03:32:59.103Z,1021.29
2017-01-19T03:33:39.612Z,1021.32
2017-01-19T03:34:20.150Z,1021.26
2017-01-19T03:35:00.583Z,1021.28
2017-01-19T03:35:41.089Z,1021.29
2017-01-19T03:36:21.508Z,1021.22
2017-01-19T03:37:02.009Z,1021.28
2017-01-19T03:37:42.520Z,1021.34
2017-01-19T03:38:23.038Z,1021.37
2017-01-19T03:39:03.563Z,1021.29
2017-01-19T03:39:44.042Z,1021.31
2017-01-19T03:40:24.553Z,1021.28
2017-01-19T03:41:05.038Z,1021.32
2017-01-19T03:41:45.527Z,1021.36
2017-01-19T03:42:26.015Z,1021.45
2017-01-19T03:43:06.515Z,1021.43
2017-01-19T03:43:46.966Z,1021.36
2017-01-19T03:44:27.493Z,1021.33
2017-01-19T03:45:07.963Z,1021.33
2017-01-19T03:45:48.572Z,1021.27
2017-01-19T03:46:29.021Z,1021.44
2017-01-19T03:47:09.458Z,1021.31
2017-01-19T03:47:49.965Z,1021.31
2017-01-19T03:48:30.457Z,1021.3
2017-01-19T03:49:10.907Z,1021.32
2017-01-19T03:49:51.483Z,1021.3
2017-01-19T03:50:31.863Z,1021.33
2017-01-19T03:51:12.400Z,1021.33
2017-01-19T03:51:52.816Z,1021.35
2017-01-19T03:52:33.426Z,1021.33
2017-01-19T03:53:13.874Z,1021.35
2017-01-19T03:53:54.362Z,1021.35
2017-01-19T03:54:34.893Z,1021.32
2017-01-19T03:55:15.367Z,1021.32
2017-01-19T03:55:55.857Z,1021.35
2017-01-19T03:56:36.331Z,1021.29
2017-01-19T03:57:16.837Z,1021.37
2017-01-19T03:57:57.276Z,1021.42
2017-01-19T03:58:37.794Z,1021.37
2017-01-19T03:59:18.228Z,1021.34
2017-01-19T03:59:58.780Z,1021.31
2017-01-19T04:00:39.268Z,1021.41
2017-01-19T04:01:19.747Z,1021.32
2017-01-19T04:02:00.231Z,1021.39
2017-01-19T04:02:40.733Z,1021.35
2017-01-19T04:03:21.238Z,1021.41
2017-01-19T04:04:01.752Z,1021.37
2017-01-19T04:04:42.214Z,1021.48
2017-01-19T04:05:22.694Z,1021.48
2017-01-19T04:06:03.187Z,1021.41
2017-01-19T04:06:43.698Z,1021.4
2017-01-19T04:07:24.176Z,1021.37
2017-01-19T04:08:04.619Z,1021.35
2017-01-19T04:08:45.181Z,1021.42
2017-01-19T04:09:25.581Z,1021.39
2017-01-19T04:10:06.087Z,1021.43
2017-01-19T04:10:46.563Z,1021.36
2017-01-19T04:11:27.149Z,1021.37
2017-01-19T04:12:07.600Z,1021.44
2017-01-19T04:12:48.071Z,1021.36
2017-01-19T04:13:28.532Z,1021.37
2017-01-19T04:14:09.015Z,1021.32
2017-01-19T04:14:49.503Z,1021.33
2017-01-19T04:15:29.987Z,1021.44
2017-01-19T04:16:10.463Z,1021.33
2017-01-19T04:16:50.985Z,1021.39
2017-01-19T04:17:31.428Z,1021.39
2017-01-19T04:18:11.884Z,1021.36
2017-01-19T04:18:52.403Z,1021.34
2017-01-19T04:19:32.891Z,1021.26
2017-01-19T04:20:13.396Z,1021.29
2017-01-19T04:20:53.860Z,1021.25
2017-01-19T04:21:34.327Z,1021.27
2017-01-19T04:22:14.804Z,1021.27
2017-01-19T04:22:55.313Z,1021.2
2017-01-19T04:23:35.759Z,1021.26
2017-01-19T04:24:16.268Z,1021.29
2017-01-19T04:24:56.709Z,1021.33
2017-01-19T04:25:37.272Z,1021.26
2017-01-19T04:26:17.728Z,1021.32
2017-01-19T04:26:58.240Z,1021.32
2017-01-19T04:27:38.736Z,1021.28
2017-01-19T04:28:19.374Z,1021.28
2017-01-19T04:28:59.837Z,1021.27
2017-01-19T04:29:40.333Z,1021.29
2017-01-19T04:30:20.831Z,1021.23
2017-01-19T04:31:01.287Z,1021.33
2017-01-19T04:31:41.792Z,1021.27
2017-01-19T04:32:22.293Z,1021.29
2017-01-19T04:33:02.746Z,1021.29
2017-01-19T04:33:43.277Z,1021.25
2017-01-19T04:34:23.732Z,1021.31
2017-01-19T04:35:04.214Z,1021.29
2017-01-19T04:35:44.701Z,1021.22
2017-01-19T04:36:25.309Z,1021.26
2017-01-19T04:37:05.729Z,1021.21
2017-01-19T04:37:46.270Z,1021.22
2017-01-19T04:38:26.728Z,1021.17
2017-01-19T04:39:07.190Z,1021.2
2017-01-19T04:39:47.678Z,1021.16
2017-01-19T04:40:28.165Z,1021.18
2017-01-19T04:41:08.637Z,1021.2
2017-01-19T04:41:49.136Z,1021.21
2017-01-19T04:42:29.631Z,1021.25
2017-01-19T04:43:10.102Z,1021.24
2017-01-19T04:43:50.592Z,1021.15
2017-01-19T04:44:31.050Z,1021.24
2017-01-19T04:45:11.568Z,1021.23
2017-01-19T04:45:52.103Z,1021.19
2017-01-19T04:46:32.636Z,1021.14
2017-01-19T04:47:13.186Z,1021.19
2017-01-19T04:47:53.682Z,1021.22
2017-01-19T04:48:34.313Z,1021.22
2017-01-19T04:49:14.753Z,1021.16
2017-01-19T04:49:55.224Z,1021.17
2017-01-19T04:50:35.675Z,1021.21
2017-01-19T04:51:16.156Z,1021.19
2017-01-19T04:51:56.638Z,1021.2
2017-01-19T04:52:37.132Z,1021.24
2017-01-19T04:53:17.720Z,1021.22
2017-01-19T04:53:58.160Z,1021.17
2017-01-19T04:54:38.612Z,1021.22
2017-01-19T04:55:19.368Z,1021.21
2017-01-19T04:55:59.785Z,1021.28
2017-01-19T04:56:40.234Z,1021.16
2017-01-19T04:57:20.728Z,1021.2
2017-01-19T04:58:01.226Z,1021.24
2017-01-19T04:58:41.766Z,1021.19
2017-01-19T04:59:22.317Z,1021.19
2017-01-19T05:00:02.778Z,1021.18
2017-01-19T05:00:43.248Z,1021.19
2017-01-19T05:01:23.710Z,1021.15
2017-01-19T05:02:04.268Z,1021.14
2017-01-19T05:02:44.886Z,1021.21
2017-01-19T05:03:25.426Z,1021.41
2017-01-19T05:04:05.895Z,1021.18
2017-01-19T05:04:46.380Z,1021.32
2017-01-19T05:05:26.875Z,1021.28
2017-01-19T05:06:07.399Z,1021.24
2017-01-19T05:06:47.846Z,1021.31
2017-01-19T05:07:28.326Z,1021.28
2017-01-19T05:08:08.795Z,1021.28
2017-01-19T05:08:49.336Z,1021.27
2017-01-19T05:09:29.830Z,1021.3
2017-01-19T05:10:10.264Z,1021.32
2017-01-19T05:10:50.785Z,1021.26
2017-01-19T05:11:31.304Z,1021.26
2017-01-19T05:12:11.735Z,1021.22
2017-01-19T05:12:52.221Z,1021.35
2017-01-19T05:13:32.739Z,1021.19
2017-01-19T05:14:13.240Z,1021.23
2017-01-19T05:14:53.680Z,1021.24
2017-01-19T05:15:34.197Z,1021.27
2017-01-19T05:16:14.700Z,1021.27
2017-01-19T05:16:55.223Z,1021.26
2017-01-19T05:17:35.727Z,1021.26
2017-01-19T05:18:16.189Z,1021.31
2017-01-19T05:18:56.652Z,1021.29
2017-01-19T05:19:37.195Z,1021.37
2017-01-19T05:20:17.602Z,1021.36
2017-01-19T05:20:58.111Z,1021.27
2017-01-19T05:21:38.598Z,1021.3
2017-01-19T05:22:19.080Z,1021.29
2017-01-19T05:22:59.537Z,1021.34
2017-01-19T05:23:40.070Z,1021.37
2017-01-19T05:24:20.516Z,1021.36
2017-01-19T05:25:01.005Z,1021.3
2017-01-19T05:25:41.462Z,1021.38
2017-01-19T05:26:21.909Z,1021.51
2017-01-19T05:27:02.427Z,1021.34
2017-01-19T05:27:42.892Z,1021.48
2017-01-19T05:28:23.409Z,1021.37
2017-01-19T05:29:03.868Z,1021.38
2017-01-19T05:29:44.468Z,1021.38
2017-01-19T05:30:24.836Z,1021.44
2017-01-19T05:31:05.360Z,1021.39
2017-01-19T05:31:45.887Z,1021.35
2017-01-19T05:32:26.322Z,1021.37
2017-01-19T05:33:06.817Z,1021.35
2017-01-19T05:33:47.326Z,1021.41
2017-01-19T05:34:27.805Z,1021.36
2017-01-19T05:35:08.274Z,1021.38
2017-01-19T05:35:48.816Z,1021.36
2017-01-19T05:36:29.365Z,1021.43
2017-01-19T05:37:09.816Z,1021.39
2017-01-19T05:37:50.266Z,1021.46
2017-01-19T05:38:30.811Z,1021.41
2017-01-19T05:39:11.312Z,1021.55
2017-01-19T05:39:51.778Z,1021.43
2017-01-19T05:40:32.273Z,1021.39
2017-01-19T05:41:12.709Z,1021.41
2017-01-19T05:41:53.153Z,1021.46
2017-01-19T05:42:33.661Z,1021.42
2017-01-19T05:43:14.153Z,1021.41
2017-01-19T05:43:54.627Z,1021.42
2017-01-19T05:44:35.133Z,1021.39
2017-01-19T05:45:15.644Z,1021.44
2017-01-19T05:45:56.061Z,1021.45
2017-01-19T05:46:36.706Z,1021.42
2017-01-19T05:47:17.087Z,1021.43
2017-01-19T05:49:19.065Z,1021.49
2017-01-19T05:49:59.634Z,1021.42
2017-01-19T05:50:40.133Z,1021.46
2017-01-19T05:51:20.537Z,1021.46
2017-01-19T05:52:01.007Z,1021.44
2017-01-19T05:52:41.498Z,1021.48
2017-01-19T05:53:22.140Z,1021.35
2017-01-19T05:54:02.753Z,1021.38
2017-01-19T05:54:43.293Z,1021.38
2017-01-19T05:55:23.801Z,1021.37
2017-01-19T05:56:04.293Z,1021.4
2017-01-19T05:56:44.736Z,1021.38
2017-01-19T05:57:25.280Z,1021.48
2017-01-19T05:58:05.948Z,1021.51
2017-01-19T05:58:46.590Z,1021.46
2017-01-19T05:59:27.021Z,1021.43
2017-01-19T06:00:07.516Z,1021.48
2017-01-19T06:00:47.997Z,1021.47
2017-01-19T06:01:28.554Z,1021.43
2017-01-19T06:02:09.170Z,1021.53
2017-01-19T06:02:49.987Z,1021.5
2017-01-19T06:03:30.426Z,1021.5
2017-01-19T06:04:11.204Z,1021.69
2017-01-19T06:04:51.800Z,1021.49
2017-01-19T06:05:32.186Z,1021.53
2017-01-19T06:06:12.673Z,1021.59
2017-01-19T06:06:53.107Z,1021.63
2017-01-19T06:09:21.802Z,1021.53
2017-01-19T06:10:02.842Z,1021.46
2017-01-19T06:10:43.188Z,1021.56
2017-01-19T06:11:23.746Z,1021.57
2017-01-19T06:12:04.386Z,1021.55
2017-01-19T06:12:44.964Z,1021.54
2017-01-19T06:13:25.991Z,1021.55
2017-01-19T06:14:06.368Z,1021.46
2017-01-19T06:14:47.099Z,1021.59
2017-01-19T06:15:27.530Z,1021.51
2017-01-19T06:16:07.943Z,1021.45
2017-01-19T06:16:48.621Z,1021.54
2017-01-19T06:17:29.171Z,1021.49
2017-01-19T06:18:09.811Z,1021.49
2017-01-19T06:18:50.333Z,1021.54
2017-01-19T06:19:31.432Z,1021.51
2017-01-19T06:20:13.283Z,1021.55
2017-01-19T06:20:57.269Z,1021.5
2017-01-19T06:21:37.892Z,1021.51
2017-01-19T06:22:18.408Z,1021.57
2017-01-19T06:22:59.143Z,1021.5
2017-01-19T06:23:39.705Z,1021.57
2017-01-19T06:24:20.334Z,1021.59
2017-01-19T06:25:00.944Z,1021.59
2017-01-19T06:25:41.823Z,1021.55
2017-01-19T06:26:23.205Z,1021.62
2017-01-19T06:27:03.728Z,1021.61
2017-01-19T06:27:44.142Z,1021.58
2017-01-19T06:28:24.953Z,1021.63
2017-01-19T06:29:05.560Z,1021.65
2017-01-19T06:29:46.317Z,1021.61
2017-01-19T06:30:26.824Z,1021.66
2017-01-19T06:31:07.608Z,1021.66
2017-01-19T06:31:48.778Z,1021.65
2017-01-19T06:32:29.248Z,1021.61
2017-01-19T06:33:12.815Z,1021.59
2017-01-19T06:33:51.431Z,1021.75
2017-01-19T06:34:31.968Z,1021.62
2017-01-19T06:35:13.047Z,1021.61
2017-01-19T06:35:53.491Z,1021.61
2017-01-19T06:36:37.143Z,1021.61
2017-01-19T06:38:59.347Z,1021.61
2017-01-19T06:39:40.219Z,1021.6
2017-01-19T06:40:21.330Z,1021.61
2017-01-19T06:41:03.762Z,1021.58
2017-01-19T06:41:50.058Z,1021.58
2017-01-19T06:42:33.410Z,1021.61
2017-01-19T06:43:13.912Z,1021.61
2017-01-19T06:43:54.663Z,1021.63
2017-01-19T06:44:35.207Z,1021.65
2017-01-19T06:45:15.826Z,1021.66
2017-01-19T06:45:56.316Z,1021.69
2017-01-19T06:46:36.890Z,1021.67
2017-01-19T06:47:17.812Z,1021.64
2017-01-19T06:47:59.262Z,1021.69
2017-01-19T06:48:40.076Z,1021.66
2017-01-19T06:49:20.533Z,1021.7
2017-01-19T06:50:01.225Z,1021.67
2017-01-19T06:50:41.605Z,1021.67
2017-01-19T06:51:22.389Z,1021.72
2017-01-19T06:52:02.845Z,1021.68
2017-01-19T06:52:43.747Z,1021.64
2017-01-19T06:53:24.891Z,1021.69
2017-01-19T06:54:05.852Z,1021.73
2017-01-19T06:54:47.286Z,1021.79
2017-01-19T06:55:27.718Z,1021.73
2017-01-19T06:56:08.954Z,1021.7
2017-01-19T06:56:50.052Z,1021.8
2017-01-19T06:57:30.709Z,1021.7
2017-01-19T06:58:11.034Z,1021.78
2017-01-19T06:58:52.035Z,1021.74
2017-01-19T06:59:32.550Z,1021.7
2017-01-19T07:00:13.101Z,1021.78
2017-01-19T07:00:54.472Z,1021.79
2017-01-19T07:01:35.574Z,1021.74
2017-01-19T07:02:16.570Z,1021.71
2017-01-19T07:02:57.183Z,1021.76
2017-01-19T07:03:54.285Z,1021.7
2017-01-19T07:04:40.910Z,1021.69
2017-01-19T07:05:31.932Z,1021.71
2017-01-19T07:06:13.681Z,1021.8
2017-01-19T07:06:54.301Z,1021.84
2017-01-19T07:07:34.876Z,1021.96
2017-01-19T07:08:15.560Z,1021.87
2017-01-19T07:10:30.302Z,1021.93
2017-01-19T07:12:59.315Z,1021.9
2017-01-19T07:13:39.945Z,1021.85
2017-01-19T07:14:20.362Z,1021.95
2017-01-19T07:15:00.909Z,1021.86
2017-01-19T07:15:41.419Z,1021.93
2017-01-19T07:16:21.905Z,1021.92
2017-01-19T07:17:02.439Z,1021.89
2017-01-19T07:17:42.852Z,1021.83
2017-01-19T07:18:23.434Z,1021.83
2017-01-19T07:19:03.956Z,1021.91
2017-01-19T07:19:44.368Z,1021.9
2017-01-19T07:20:24.876Z,1021.92
2017-01-19T07:21:05.370Z,1021.92
2017-01-19T07:21:45.879Z,1021.93
2017-01-19T07:22:32.279Z,1021.88
2017-01-19T07:23:12.791Z,1021.89
2017-01-19T07:23:53.407Z,1021.98
2017-01-19T07:24:33.898Z,1021.98
2017-01-19T07:25:14.386Z,1021.9
2017-01-19T07:25:54.892Z,1021.92
2017-01-19T07:26:35.349Z,1021.89
2017-01-19T07:27:15.909Z,1021.93
2017-01-19T07:27:56.377Z,1021.99
2017-01-19T07:28:36.825Z,1021.99
2017-01-19T07:29:17.468Z,1021.94
2017-01-19T07:29:57.946Z,1021.97
2017-01-19T07:30:38.405Z,1021.93
2017-01-19T07:31:59.512Z,1021.96
2017-01-19T07:32:40.015Z,1021.97
2017-01-19T07:33:20.487Z,1022.01
2017-01-19T07:34:00.970Z,1022
2017-01-19T07:34:41.552Z,1021.98
2017-01-19T07:35:21.959Z,1022
2017-01-19T07:36:02.451Z,1021.99
2017-01-19T07:36:42.966Z,1021.97
2017-01-19T07:37:23.526Z,1022.02
2017-01-19T07:38:04.071Z,1022.08
2017-01-19T07:38:44.551Z,1022.05
2017-01-19T07:39:25.031Z,1022.05
2017-01-19T07:40:05.502Z,1022.02
2017-01-19T07:40:45.991Z,1021.98
2017-01-19T07:41:26.477Z,1022.09
2017-01-19T07:42:06.935Z,1022.04
2017-01-19T07:42:47.402Z,1022.03
2017-01-19T07:43:28.005Z,1021.98
2017-01-19T07:44:08.432Z,1021.95
2017-01-19T07:44:48.904Z,1021.98
2017-01-19T07:45:29.424Z,1021.98
2017-01-19T07:46:09.966Z,1021.98
2017-01-19T07:46:50.390Z,1022.02
2017-01-19T07:47:30.981Z,1022.04
2017-01-19T07:48:11.420Z,1021.99
2017-01-19T07:48:51.940Z,1022.01
2017-01-19T07:49:32.418Z,1022.01
2017-01-19T07:50:12.929Z,1022.09
2017-01-19T07:50:53.399Z,1022.05
2017-01-19T07:51:33.953Z,1022.04
2017-01-19T07:52:14.463Z,1022.08
2017-01-19T07:52:54.942Z,1022.08
2017-01-19T07:53:35.424Z,1022.13
2017-01-19T07:54:15.926Z,1022.06
2017-01-19T07:54:56.402Z,1022.09
2017-01-19T07:55:36.874Z,1022.09
2017-01-19T07:56:17.421Z,1022.06
2017-01-19T07:56:57.861Z,1022.06
2017-01-19T07:57:38.361Z,1022.07
2017-01-19T07:58:18.839Z,1022.02
2017-01-19T07:58:59.342Z,1022.02
2017-01-19T07:59:39.799Z,1022.1
2017-01-19T08:00:20.368Z,1022.04
2017-01-19T08:01:00.933Z,1022.08
2017-01-19T08:01:41.368Z,1022.07
2017-01-19T08:02:21.868Z,1022.06
2017-01-19T08:03:02.304Z,1021.98
2017-01-19T08:03:42.848Z,1022.05
2017-01-19T08:04:23.308Z,1022.13
2017-01-19T08:05:03.765Z,1022.1
2017-01-19T08:05:45.114Z,1022.04
2017-01-19T08:06:25.578Z,1022.07
2017-01-19T08:07:06.089Z,1022.04
2017-01-19T08:07:46.616Z,1022.11
2017-01-19T08:08:27.034Z,1021.99
2017-01-19T08:09:07.520Z,1022.07
2017-01-19T08:09:47.978Z,1022.02
2017-01-19T08:10:28.470Z,1022.07
2017-01-19T08:11:09.034Z,1022
2017-01-19T08:11:49.507Z,1022.03
2017-01-19T08:12:30.011Z,1022.11
2017-01-19T08:13:10.565Z,1022.07
2017-01-19T08:13:51.034Z,1022.07
2017-01-19T08:14:31.489Z,1022.04
2017-01-19T08:15:11.993Z,1022.05
2017-01-19T08:15:52.468Z,1022.01
2017-01-19T08:16:32.987Z,1022.06
2017-01-19T08:17:13.425Z,1022.14
2017-01-19T08:17:53.915Z,1022.2
2017-01-19T08:18:34.396Z,1022.17
2017-01-19T08:19:14.873Z,1022.15
2017-01-19T08:19:55.361Z,1022.12
2017-01-19T08:20:35.848Z,1022.1
2017-01-19T08:21:16.318Z,1022.1
2017-01-19T08:21:56.870Z,1022.08
2017-01-19T08:22:37.302Z,1022.12
2017-01-19T08:23:17.794Z,1022.13